sensor_id;sensor_type;location;lat;lon;timestamp;temperature;humidity
64869;DHT22;51349;52.424;10.840;2023-04-24T00:04:27;12.90;99.90
64869;DHT22;51349;52.424;10.840;2023-04-24T00:09:28;12.80;99.90
64869;DHT22;51349;52.424;10.840;2023-04-24T00:14:29;12.90;99.90
64869;DHT22;51349;52.424;10.840;2023-04-24T00:19:30;12.80;99.90
64869;DHT22;51349;52.424;10.840;2023-04-24T00:24:36;12.90;99.90
64869;DHT22;51349;52.424;10.840;2023-04-24T00:29:39;12.80;99.90
64869;DHT22;51349;52.424;10.840;2023-04-24T00:34:43;12.70;99.90
64869;DHT22;51349;52.424;10.840;2023-04-24T00:39:47;12.70;99.90
64869;DHT22;51349;52.424;10.840;2023-04-24T00:44:48;12.50;99.90
64869;DHT22;51349;52.424;10.840;2023-04-24T00:49:49;12.40;99.90
64869;DHT22;51349;52.424;10.840;2023-04-24T00:54:50;12.40;99.90
64869;DHT22;51349;52.424;10.840;2023-04-24T00:59:52;12.20;99.90
64869;DHT22;51349;52.424;10.840;2023-04-24T01:04:53;12.20;99.90
64869;DHT22;51349;52.424;10.840;2023-04-24T01:09:55;12.20;99.90
64869;DHT22;51349;52.424;10.840;2023-04-24T01:15:00;12.10;99.90
64869;DHT22;51349;52.424;10.840;2023-04-24T01:20:01;12.10;99.90
64869;DHT22;51349;52.424;10.840;2023-04-24T01:25:06;12.00;99.90
64869;DHT22;51349;52.424;10.840;2023-04-24T01:30:11;11.80;99.90
64869;DHT22;51349;52.424;10.840;2023-04-24T01:35:12;11.70;99.90
64869;DHT22;51349;52.424;10.840;2023-04-24T01:40:13;11.50;99.90
64869;DHT22;51349;52.424;10.840;2023-04-24T01:45:14;11.40;99.90
64869;DHT22;51349;52.424;10.840;2023-04-24T01:50:15;11.30;99.90
64869;DHT22;51349;52.424;10.840;2023-04-24T01:55:18;11.30;99.90
64869;DHT22;51349;52.424;10.840;2023-04-24T02:00:28;11.20;99.90
64869;DHT22;51349;52.424;10.840;2023-04-24T02:05:29;11.10;99.90
64869;DHT22;51349;52.424;10.840;2023-04-24T02:10:30;11.00;99.90
64869;DHT22;51349;52.424;10.840;2023-04-24T02:15:34;10.90;99.90
64869;DHT22;51349;52.424;10.840;2023-04-24T02:20:36;10.90;99.90
64869;DHT22;51349;52.424;10.840;2023-04-24T02:25:37;10.80;99.90
64869;DHT22;51349;52.424;10.840;2023-04-24T02:30:40;10.80;99.90
64869;DHT22;51349;52.424;10.840;2023-04-24T02:35:42;10.90;99.90
64869;DHT22;51349;52.424;10.840;2023-04-24T02:40:43;10.90;99.90
64869;DHT22;51349;52.424;10.840;2023-04-24T02:45:44;11.00;99.90
64869;DHT22;51349;52.424;10.840;2023-04-24T02:50:44;11.10;99.90
64869;DHT22;51349;52.424;10.840;2023-04-24T02:55:50;11.00;99.90
64869;DHT22;51349;52.424;10.840;2023-04-24T03:00:54;10.90;99.90
64869;DHT22;51349;52.424;10.840;2023-04-24T03:06:01;10.80;99.90
64869;DHT22;51349;52.424;10.840;2023-04-24T03:11:04;10.70;99.90
64869;DHT22;51349;52.424;10.840;2023-04-24T03:16:05;10.70;99.90
64869;DHT22;51349;52.424;10.840;2023-04-24T03:21:06;10.60;99.90
64869;DHT22;51349;52.424;10.840;2023-04-24T03:26:07;10.50;99.90
64869;DHT22;51349;52.424;10.840;2023-04-24T03:31:10;10.40;99.90
64869;DHT22;51349;52.424;10.840;2023-04-24T03:36:14;10.30;99.90
64869;DHT22;51349;52.424;10.840;2023-04-24T03:41:15;10.30;99.90
64869;DHT22;51349;52.424;10.840;2023-04-24T03:46:16;10.30;99.90
64869;DHT22;51349;52.424;10.840;2023-04-24T03:51:16;10.20;99.90
64869;DHT22;51349;52.424;10.840;2023-04-24T03:56:17;10.10;99.90
64869;DHT22;51349;52.424;10.840;2023-04-24T04:01:18;10.00;99.90
64869;DHT22;51349;52.424;10.840;2023-04-24T04:06:23;9.90;99.90
64869;DHT22;51349;52.424;10.840;2023-04-24T04:11:27;9.80;99.90
64869;DHT22;51349;52.424;10.840;2023-04-24T04:16:31;9.60;99.90
64869;DHT22;51349;52.424;10.840;2023-04-24T04:21:31;9.60;99.90
64869;DHT22;51349;52.424;10.840;2023-04-24T04:26:33;9.60;99.90
64869;DHT22;51349;52.424;10.840;2023-04-24T04:31:36;9.60;99.90
64869;DHT22;51349;52.424;10.840;2023-04-24T04:36:37;9.70;99.90
64869;DHT22;51349;52.424;10.840;2023-04-24T04:41:42;9.80;99.90
64869;DHT22;51349;52.424;10.840;2023-04-24T04:46:46;9.80;99.90
64869;DHT22;51349;52.424;10.840;2023-04-24T04:51:47;10.00;99.90
64869;DHT22;51349;52.424;10.840;2023-04-24T04:56:54;10.10;99.90
64869;DHT22;51349;52.424;10.840;2023-04-24T05:01:56;10.00;99.90
64869;DHT22;51349;52.424;10.840;2023-04-24T05:06:56;10.00;99.90
64869;DHT22;51349;52.424;10.840;2023-04-24T05:12:06;10.10;99.90
64869;DHT22;51349;52.424;10.840;2023-04-24T05:17:10;10.20;99.90
64869;DHT22;51349;52.424;10.840;2023-04-24T05:22:12;10.30;99.90
64869;DHT22;51349;52.424;10.840;2023-04-24T05:27:12;10.40;99.90
64869;DHT22;51349;52.424;10.840;2023-04-24T05:32:13;10.50;99.90
64869;DHT22;51349;52.424;10.840;2023-04-24T05:37:17;10.60;99.90
64869;DHT22;51349;52.424;10.840;2023-04-24T05:42:18;10.70;99.90
64869;DHT22;51349;52.424;10.840;2023-04-24T05:47:18;10.80;99.90
64869;DHT22;51349;52.424;10.840;2023-04-24T05:52:20;10.80;99.90
64869;DHT22;51349;52.424;10.840;2023-04-24T05:57:20;10.80;99.90
64869;DHT22;51349;52.424;10.840;2023-04-24T06:02:27;10.90;99.90
64869;DHT22;51349;52.424;10.840;2023-04-24T06:07:29;11.10;99.90
64869;DHT22;51349;52.424;10.840;2023-04-24T06:12:32;11.10;99.90
64869;DHT22;51349;52.424;10.840;2023-04-24T06:17:33;11.20;99.90
64869;DHT22;51349;52.424;10.840;2023-04-24T06:22:39;11.50;99.90
64869;DHT22;51349;52.424;10.840;2023-04-24T06:27:43;11.70;99.90
64869;DHT22;51349;52.424;10.840;2023-04-24T06:32:44;12.00;99.90
64869;DHT22;51349;52.424;10.840;2023-04-24T06:37:46;12.60;99.90
64869;DHT22;51349;52.424;10.840;2023-04-24T06:42:47;12.70;99.90
64869;DHT22;51349;52.424;10.840;2023-04-24T06:47:55;12.90;99.90
64869;DHT22;51349;52.424;10.840;2023-04-24T06:52:59;13.00;99.90
64869;DHT22;51349;52.424;10.840;2023-04-24T06:58:00;12.80;99.90
64869;DHT22;51349;52.424;10.840;2023-04-24T07:03:04;12.80;99.90
64869;DHT22;51349;52.424;10.840;2023-04-24T07:08:26;12.60;99.90
64869;DHT22;51349;52.424;10.840;2023-04-24T07:13:31;12.50;99.90
64869;DHT22;51349;52.424;10.840;2023-04-24T07:18:31;12.40;99.90
64869;DHT22;51349;52.424;10.840;2023-04-24T07:23:32;12.40;99.90
64869;DHT22;51349;52.424;10.840;2023-04-24T07:28:38;12.60;99.90
64869;DHT22;51349;52.424;10.840;2023-04-24T07:33:39;12.50;99.90
64869;DHT22;51349;52.424;10.840;2023-04-24T07:38:41;12.60;99.90
64869;DHT22;51349;52.424;10.840;2023-04-24T07:43:44;13.00;99.90
64869;DHT22;51349;52.424;10.840;2023-04-24T07:48:46;13.20;99.90
64869;DHT22;51349;52.424;10.840;2023-04-24T07:53:48;14.20;99.90
64869;DHT22;51349;52.424;10.840;2023-04-24T07:58:49;15.30;99.90
64869;DHT22;51349;52.424;10.840;2023-04-24T08:03:50;14.50;99.90
64869;DHT22;51349;52.424;10.840;2023-04-24T08:08:52;14.40;99.90
64869;DHT22;51349;52.424;10.840;2023-04-24T08:13:55;13.70;99.90
64869;DHT22;51349;52.424;10.840;2023-04-24T08:18:59;12.60;99.90
64869;DHT22;51349;52.424;10.840;2023-04-24T08:24:00;12.00;99.90
64869;DHT22;51349;52.424;10.840;2023-04-24T08:29:07;11.60;99.90
64869;DHT22;51349;52.424;10.840;2023-04-24T08:34:09;11.30;99.90
64869;DHT22;51349;52.424;10.840;2023-04-24T08:39:11;11.10;99.90
64869;DHT22;51349;52.424;10.840;2023-04-24T08:44:12;11.20;99.90
64869;DHT22;51349;52.424;10.840;2023-04-24T08:49:17;11.40;99.90
64869;DHT22;51349;52.424;10.840;2023-04-24T08:54:19;11.60;99.90
64869;DHT22;51349;52.424;10.840;2023-04-24T08:59:22;12.10;99.90
64869;DHT22;51349;52.424;10.840;2023-04-24T09:04:24;12.10;99.90
64869;DHT22;51349;52.424;10.840;2023-04-24T09:09:30;12.50;99.90
64869;DHT22;51349;52.424;10.840;2023-04-24T09:14:32;13.30;99.90
64869;DHT22;51349;52.424;10.840;2023-04-24T09:19:37;14.30;99.90
64869;DHT22;51349;52.424;10.840;2023-04-24T09:24:38;15.30;99.90
64869;DHT22;51349;52.424;10.840;2023-04-24T09:29:39;16.00;99.90
64869;DHT22;51349;52.424;10.840;2023-04-24T09:34:43;15.50;99.90
64869;DHT22;51349;52.424;10.840;2023-04-24T09:40:14;16.40;99.90
64869;DHT22;51349;52.424;10.840;2023-04-24T09:45:15;14.90;99.90
64869;DHT22;51349;52.424;10.840;2023-04-24T09:50:19;14.10;99.90
64869;DHT22;51349;52.424;10.840;2023-04-24T09:55:20;14.70;99.90
64869;DHT22;51349;52.424;10.840;2023-04-24T10:00:39;16.30;99.90
64869;DHT22;51349;52.424;10.840;2023-04-24T10:05:40;18.10;99.20
64869;DHT22;51349;52.424;10.840;2023-04-24T10:10:45;16.40;96.80
64869;DHT22;51349;52.424;10.840;2023-04-24T10:15:49;15.80;98.40
64869;DHT22;51349;52.424;10.840;2023-04-24T10:21:00;15.20;97.30
64869;DHT22;51349;52.424;10.840;2023-04-24T10:26:02;15.30;98.40
64869;DHT22;51349;52.424;10.840;2023-04-24T10:31:03;15.20;98.10
64869;DHT22;51349;52.424;10.840;2023-04-24T10:36:08;15.40;97.70
64869;DHT22;51349;52.424;10.840;2023-04-24T10:41:12;17.20;98.60
64869;DHT22;51349;52.424;10.840;2023-04-24T10:46:28;18.30;96.00
64869;DHT22;51349;52.424;10.840;2023-04-24T10:56:45;16.60;94.20
64869;DHT22;51349;52.424;10.840;2023-04-24T11:01:53;15.60;93.10
64869;DHT22;51349;52.424;10.840;2023-04-24T11:06:54;15.30;95.00
64869;DHT22;51349;52.424;10.840;2023-04-24T11:12:11;16.10;95.30
64869;DHT22;51349;52.424;10.840;2023-04-24T11:17:30;16.80;92.40
64869;DHT22;51349;52.424;10.840;2023-04-24T11:22:33;16.00;92.50
64869;DHT22;51349;52.424;10.840;2023-04-24T11:27:42;15.20;93.50
64869;DHT22;51349;52.424;10.840;2023-04-24T11:32:47;15.80;94.30
64869;DHT22;51349;52.424;10.840;2023-04-24T11:37:50;15.60;92.70
64869;DHT22;51349;52.424;10.840;2023-04-24T11:42:52;15.40;92.80
64869;DHT22;51349;52.424;10.840;2023-04-24T11:47:53;16.50;92.70
64869;DHT22;51349;52.424;10.840;2023-04-24T11:52:54;17.00;91.70
64869;DHT22;51349;52.424;10.840;2023-04-24T11:57:58;16.50;91.20
64869;DHT22;51349;52.424;10.840;2023-04-24T12:03:05;15.70;90.70
64869;DHT22;51349;52.424;10.840;2023-04-24T12:08:06;15.40;90.90
64869;DHT22;51349;52.424;10.840;2023-04-24T12:13:09;15.50;90.80
64869;DHT22;51349;52.424;10.840;2023-04-24T12:18:12;15.40;91.60
64869;DHT22;51349;52.424;10.840;2023-04-24T12:23:13;15.70;91.50
64869;DHT22;51349;52.424;10.840;2023-04-24T12:28:15;15.60;91.00
64869;DHT22;51349;52.424;10.840;2023-04-24T12:33:19;15.30;90.60
64869;DHT22;51349;52.424;10.840;2023-04-24T12:38:26;14.60;91.10
64869;DHT22;51349;52.424;10.840;2023-04-24T12:43:27;14.90;91.40
64869;DHT22;51349;52.424;10.840;2023-04-24T12:48:29;15.30;91.60
64869;DHT22;51349;52.424;10.840;2023-04-24T12:53:30;15.50;90.70
64869;DHT22;51349;52.424;10.840;2023-04-24T12:58:31;15.30;92.00
64869;DHT22;51349;52.424;10.840;2023-04-24T13:03:32;14.70;92.70
64869;DHT22;51349;52.424;10.840;2023-04-24T13:08:32;14.40;92.40
64869;DHT22;51349;52.424;10.840;2023-04-24T13:13:33;14.30;93.00
64869;DHT22;51349;52.424;10.840;2023-04-24T13:18:34;14.00;93.60
64869;DHT22;51349;52.424;10.840;2023-04-24T13:23:35;14.20;93.80
64869;DHT22;51349;52.424;10.840;2023-04-24T13:28:35;13.90;94.90
64869;DHT22;51349;52.424;10.840;2023-04-24T13:33:36;13.50;95.90
64869;DHT22;51349;52.424;10.840;2023-04-24T13:38:37;13.50;96.60
64869;DHT22;51349;52.424;10.840;2023-04-24T13:43:38;13.20;99.90
64869;DHT22;51349;52.424;10.840;2023-04-24T13:48:38;12.80;99.90
64869;DHT22;51349;52.424;10.840;2023-04-24T13:53:40;13.30;99.90
64869;DHT22;51349;52.424;10.840;2023-04-24T13:58:41;13.20;99.90
64869;DHT22;51349;52.424;10.840;2023-04-24T14:03:42;12.50;99.90
64869;DHT22;51349;52.424;10.840;2023-04-24T14:08:46;12.10;99.90
64869;DHT22;51349;52.424;10.840;2023-04-24T14:13:47;12.20;99.90
64869;DHT22;51349;52.424;10.840;2023-04-24T14:18:48;12.20;99.90
64869;DHT22;51349;52.424;10.840;2023-04-24T14:47:50;11.60;99.90
64869;DHT22;51349;52.424;10.840;2023-04-24T14:52:50;11.30;99.90
64869;DHT22;51349;52.424;10.840;2023-04-24T14:57:51;11.10;99.90
64869;DHT22;51349;52.424;10.840;2023-04-24T15:02:52;11.20;99.90
64869;DHT22;51349;52.424;10.840;2023-04-24T15:07:53;11.00;99.90
64869;DHT22;51349;52.424;10.840;2023-04-24T15:12:53;10.60;99.90
64869;DHT22;51349;52.424;10.840;2023-04-24T15:17:54;10.30;99.90
64869;DHT22;51349;52.424;10.840;2023-04-24T15:22:55;10.30;99.90
64869;DHT22;51349;52.424;10.840;2023-04-24T15:27:57;10.00;99.90
64869;DHT22;51349;52.424;10.840;2023-04-24T15:33:00;9.90;99.90
64869;DHT22;51349;52.424;10.840;2023-04-24T15:38:01;9.90;99.90
64869;DHT22;51349;52.424;10.840;2023-04-24T15:43:02;9.90;99.90
64869;DHT22;51349;52.424;10.840;2023-04-24T15:48:03;9.80;99.90
64869;DHT22;51349;52.424;10.840;2023-04-24T15:53:05;9.90;99.90
64869;DHT22;51349;52.424;10.840;2023-04-24T15:58:06;9.80;99.90
64869;DHT22;51349;52.424;10.840;2023-04-24T16:03:06;9.90;99.90
64869;DHT22;51349;52.424;10.840;2023-04-24T16:08:07;10.00;99.90
64869;DHT22;51349;52.424;10.840;2023-04-24T16:13:08;9.80;99.90
64869;DHT22;51349;52.424;10.840;2023-04-24T16:18:08;9.70;99.90
64869;DHT22;51349;52.424;10.840;2023-04-24T16:23:09;9.60;99.90
64869;DHT22;51349;52.424;10.840;2023-04-24T16:28:10;9.60;99.90
64869;DHT22;51349;52.424;10.840;2023-04-24T16:33:11;9.60;99.90
64869;DHT22;51349;52.424;10.840;2023-04-24T16:38:12;9.80;99.90
64869;DHT22;51349;52.424;10.840;2023-04-24T16:43:12;9.70;99.90
64869;DHT22;51349;52.424;10.840;2023-04-24T16:48:13;11.30;99.90
64869;DHT22;51349;52.424;10.840;2023-04-24T16:53:14;12.10;99.90
64869;DHT22;51349;52.424;10.840;2023-04-24T16:58:14;12.90;99.90
64869;DHT22;51349;52.424;10.840;2023-04-24T17:03:16;12.00;99.90
64869;DHT22;51349;52.424;10.840;2023-04-24T17:08:17;11.80;99.90
64869;DHT22;51349;52.424;10.840;2023-04-24T17:13:18;11.00;99.90
64869;DHT22;51349;52.424;10.840;2023-04-24T17:18:18;10.30;99.90
64869;DHT22;51349;52.424;10.840;2023-04-24T17:23:19;10.00;99.90
64869;DHT22;51349;52.424;10.840;2023-04-24T17:28:29;9.90;99.90
64869;DHT22;51349;52.424;10.840;2023-04-24T17:33:30;9.60;99.90
64869;DHT22;51349;52.424;10.840;2023-04-24T17:38:32;9.50;99.90
64869;DHT22;51349;52.424;10.840;2023-04-24T17:43:33;9.60;99.90
64869;DHT22;51349;52.424;10.840;2023-04-24T17:48:34;9.50;99.90
64869;DHT22;51349;52.424;10.840;2023-04-24T17:53:35;9.50;99.90
64869;DHT22;51349;52.424;10.840;2023-04-24T17:58:35;9.50;99.90
64869;DHT22;51349;52.424;10.840;2023-04-24T18:03:36;9.30;99.90
64869;DHT22;51349;52.424;10.840;2023-04-24T18:08:37;9.30;99.90
64869;DHT22;51349;52.424;10.840;2023-04-24T18:13:38;9.10;99.90
64869;DHT22;51349;52.424;10.840;2023-04-24T18:18:40;9.10;99.90
64869;DHT22;51349;52.424;10.840;2023-04-24T18:23:41;9.10;99.90
64869;DHT22;51349;52.424;10.840;2023-04-24T18:28:42;9.10;99.90
64869;DHT22;51349;52.424;10.840;2023-04-24T18:33:43;9.00;99.90
64869;DHT22;51349;52.424;10.840;2023-04-24T18:38:44;9.00;99.90
64869;DHT22;51349;52.424;10.840;2023-04-24T18:43:44;9.00;99.90
64869;DHT22;51349;52.424;10.840;2023-04-24T18:48:45;9.00;99.90
64869;DHT22;51349;52.424;10.840;2023-04-24T18:53:46;9.00;99.90
64869;DHT22;51349;52.424;10.840;2023-04-24T18:58:46;8.90;99.90
64869;DHT22;51349;52.424;10.840;2023-04-24T19:03:47;8.80;99.90
64869;DHT22;51349;52.424;10.840;2023-04-24T19:08:48;8.90;99.90
64869;DHT22;51349;52.424;10.840;2023-04-24T19:13:49;8.90;99.90
64869;DHT22;51349;52.424;10.840;2023-04-24T19:18:50;8.80;99.90
64869;DHT22;51349;52.424;10.840;2023-04-24T19:23:50;8.80;99.90
64869;DHT22;51349;52.424;10.840;2023-04-24T19:28:52;8.70;99.90
64869;DHT22;51349;52.424;10.840;2023-04-24T19:33:54;8.50;99.90
64869;DHT22;51349;52.424;10.840;2023-04-24T19:38:55;8.50;99.90
64869;DHT22;51349;52.424;10.840;2023-04-24T19:43:59;8.40;99.90
64869;DHT22;51349;52.424;10.840;2023-04-24T20:00:53;8.30;99.90
64869;DHT22;51349;52.424;10.840;2023-04-24T20:05:54;8.20;99.90
64869;DHT22;51349;52.424;10.840;2023-04-24T20:10:55;8.10;99.90
64869;DHT22;51349;52.424;10.840;2023-04-24T20:15:57;8.00;99.90
64869;DHT22;51349;52.424;10.840;2023-04-24T20:20:58;8.00;99.90
64869;DHT22;51349;52.424;10.840;2023-04-24T20:25:59;8.00;99.90
64869;DHT22;51349;52.424;10.840;2023-04-24T20:31:00;7.90;99.90
64869;DHT22;51349;52.424;10.840;2023-04-24T20:36:01;7.80;99.90
64869;DHT22;51349;52.424;10.840;2023-04-24T20:41:01;7.80;99.90
64869;DHT22;51349;52.424;10.840;2023-04-24T20:46:03;7.70;99.90
64869;DHT22;51349;52.424;10.840;2023-04-24T20:51:04;7.60;99.90
64869;DHT22;51349;52.424;10.840;2023-04-24T20:56:05;7.50;99.90
64869;DHT22;51349;52.424;10.840;2023-04-24T21:01:08;7.50;99.90
64869;DHT22;51349;52.424;10.840;2023-04-24T21:06:09;7.50;99.90
64869;DHT22;51349;52.424;10.840;2023-04-24T21:11:10;7.50;99.90
64869;DHT22;51349;52.424;10.840;2023-04-24T21:16:11;7.50;99.90
64869;DHT22;51349;52.424;10.840;2023-04-24T21:21:12;7.60;99.90
64869;DHT22;51349;52.424;10.840;2023-04-24T21:26:12;7.60;99.90
64869;DHT22;51349;52.424;10.840;2023-04-24T21:31:13;7.50;99.90
64869;DHT22;51349;52.424;10.840;2023-04-24T21:36:14;7.60;99.90
64869;DHT22;51349;52.424;10.840;2023-04-24T21:41:14;7.50;99.90
64869;DHT22;51349;52.424;10.840;2023-04-24T21:46:15;7.50;99.90
64869;DHT22;51349;52.424;10.840;2023-04-24T21:51:16;7.40;99.90
64869;DHT22;51349;52.424;10.840;2023-04-24T21:56:17;7.30;99.90
64869;DHT22;51349;52.424;10.840;2023-04-24T22:01:18;7.30;99.90
64869;DHT22;51349;52.424;10.840;2023-04-24T22:06:19;7.20;99.90
64869;DHT22;51349;52.424;10.840;2023-04-24T22:11:19;7.30;99.90
64869;DHT22;51349;52.424;10.840;2023-04-24T22:16:21;7.40;99.90
64869;DHT22;51349;52.424;10.840;2023-04-24T22:21:23;7.50;99.90
64869;DHT22;51349;52.424;10.840;2023-04-24T22:26:23;7.60;99.90
64869;DHT22;51349;52.424;10.840;2023-04-24T22:31:24;7.60;99.90
64869;DHT22;51349;52.424;10.840;2023-04-24T22:36:25;7.60;99.90
64869;DHT22;51349;52.424;10.840;2023-04-24T22:41:26;7.70;99.90
64869;DHT22;51349;52.424;10.840;2023-04-24T22:46:27;7.60;99.90
64869;DHT22;51349;52.424;10.840;2023-04-24T22:51:27;7.60;99.90
64869;DHT22;51349;52.424;10.840;2023-04-24T22:56:29;7.60;99.90
64869;DHT22;51349;52.424;10.840;2023-04-24T23:01:31;7.50;99.90
64869;DHT22;51349;52.424;10.840;2023-04-24T23:06:31;7.50;99.90
64869;DHT22;51349;52.424;10.840;2023-04-24T23:11:32;7.50;99.90
64869;DHT22;51349;52.424;10.840;2023-04-24T23:16:33;7.60;99.90
64869;DHT22;51349;52.424;10.840;2023-04-24T23:21:36;7.60;99.90
64869;DHT22;51349;52.424;10.840;2023-04-24T23:26:37;7.60;99.90
64869;DHT22;51349;52.424;10.840;2023-04-24T23:31:38;7.70;99.90
64869;DHT22;51349;52.424;10.840;2023-04-24T23:36:38;7.70;99.90
64869;DHT22;51349;52.424;10.840;2023-04-24T23:41:39;7.70;99.90
64869;DHT22;51349;52.424;10.840;2023-04-24T23:46:40;7.80;99.90
64869;DHT22;51349;52.424;10.840;2023-04-24T23:51:41;7.80;99.90
64869;DHT22;51349;52.424;10.840;2023-04-24T23:56:42;7.80;99.90
